createdAt,value
2022-12-19T00:00:11.233Z,20.30
2022-12-19T00:03:00.440Z,17.10
2022-12-19T00:05:44.580Z,16.90
2022-12-19T00:08:27.240Z,18.00
2022-12-19T00:11:11.228Z,19.50
2022-12-19T00:13:53.850Z,19.02
2022-12-19T00:16:36.484Z,16.50
2022-12-19T00:19:19.433Z,18.90
2022-12-19T00:22:07.078Z,17.60
2022-12-19T00:24:52.283Z,17.63
2022-12-19T00:27:35.313Z,18.38
2022-12-19T00:30:17.996Z,17.42
2022-12-19T00:33:00.739Z,18.10
2022-12-19T00:35:43.304Z,20.15
2022-12-19T00:38:28.304Z,16.95
2022-12-19T00:41:11.797Z,16.45
2022-12-19T00:43:54.866Z,16.85
2022-12-19T00:46:37.597Z,20.85
2022-12-19T00:49:20.222Z,19.20
2022-12-19T00:52:02.813Z,19.40
2022-12-19T00:54:47.616Z,15.18
2022-12-19T00:57:30.316Z,17.05
2022-12-19T01:00:13.592Z,16.35
2022-12-19T01:02:56.285Z,18.90
2022-12-19T01:05:38.923Z,16.33
2022-12-19T01:08:24.631Z,17.23
2022-12-19T01:11:10.411Z,15.98
2022-12-19T01:13:51.991Z,16.73
2022-12-19T01:16:34.569Z,18.65
2022-12-19T01:19:17.198Z,18.60
2022-12-19T01:21:59.739Z,15.40
2022-12-19T01:24:42.622Z,16.35
2022-12-19T01:27:26.534Z,17.20
2022-12-19T01:30:09.748Z,17.30
2022-12-19T01:32:54.222Z,16.83
2022-12-19T01:35:37.182Z,16.30
2022-12-19T01:38:20.777Z,17.58
2022-12-19T01:41:03.470Z,15.35
2022-12-19T01:43:57.420Z,18.77
2022-12-19T01:46:42.069Z,15.98
2022-12-19T01:49:28.091Z,18.27
2022-12-19T01:52:12.898Z,16.65
2022-12-19T01:55:07.109Z,16.63
2022-12-19T01:57:49.654Z,17.02
2022-12-19T02:00:33.614Z,18.67
2022-12-19T02:03:18.481Z,19.20
2022-12-19T02:06:01.616Z,15.95
2022-12-19T02:08:45.511Z,16.17
2022-12-19T02:11:28.139Z,16.70
2022-12-19T02:14:10.802Z,16.50
2022-12-19T02:16:56.887Z,18.35
2022-12-19T02:20:00.434Z,19.25
2022-12-19T02:22:49.421Z,18.58
2022-12-19T02:25:47.619Z,17.38
2022-12-19T02:28:49.452Z,16.48
2022-12-19T02:31:35.604Z,18.55
2022-12-19T02:34:23.018Z,16.02
2022-12-19T02:37:19.419Z,17.98
2022-12-19T02:40:04.383Z,17.83
2022-12-19T02:42:49.431Z,16.52
2022-12-19T02:45:34.748Z,14.80
2022-12-19T02:48:19.704Z,16.63
2022-12-19T02:51:03.044Z,18.58
2022-12-19T02:53:47.903Z,16.75
2022-12-19T02:56:39.024Z,16.52
2022-12-19T02:59:29.569Z,14.45
2022-12-19T03:02:18.410Z,13.13
2022-12-19T03:05:05.761Z,13.77
2022-12-19T03:07:51.384Z,18.02
2022-12-19T03:10:36.929Z,14.52
2022-12-19T03:13:20.727Z,15.02
2022-12-19T03:16:05.638Z,18.88
2022-12-19T03:18:48.252Z,18.23
2022-12-19T03:21:35.019Z,15.73
2022-12-19T03:24:18.719Z,17.23
2022-12-19T03:27:03.226Z,16.20
2022-12-19T03:29:47.912Z,15.13
2022-12-19T03:32:32.240Z,14.23
2022-12-19T03:35:16.815Z,18.15
2022-12-19T03:38:02.856Z,18.10
2022-12-19T03:40:46.246Z,17.45
2022-12-19T03:43:28.304Z,14.10
2022-12-19T03:46:14.071Z,17.13
2022-12-19T03:48:57.268Z,14.13
2022-12-19T03:51:43.609Z,14.30
2022-12-19T03:54:28.757Z,15.85
2022-12-19T03:57:13.556Z,14.63
2022-12-19T03:59:58.009Z,16.15
2022-12-19T04:02:42.237Z,16.90
2022-12-19T04:05:26.197Z,16.90
2022-12-19T04:08:09.200Z,14.80
2022-12-19T04:10:55.423Z,13.48
2022-12-19T04:13:39.763Z,13.60
2022-12-19T04:16:26.263Z,16.55
2022-12-19T04:19:11.581Z,14.23
2022-12-19T04:21:56.852Z,12.77
2022-12-19T04:24:41.623Z,13.40
2022-12-19T04:27:25.890Z,15.73
2022-12-19T04:30:09.194Z,16.25
2022-12-19T04:32:52.164Z,14.00
2022-12-19T04:35:35.186Z,12.95
2022-12-19T04:38:25.348Z,13.80
2022-12-19T04:41:08.150Z,15.20
2022-12-19T04:43:52.283Z,13.43
2022-12-19T04:46:35.047Z,15.45
2022-12-19T04:49:17.672Z,13.55
2022-12-19T04:52:00.227Z,13.40
2022-12-19T04:54:42.993Z,14.93
2022-12-19T04:57:25.603Z,14.65
2022-12-19T05:00:11.182Z,15.27
2022-12-19T05:02:53.836Z,15.23
2022-12-19T05:05:36.563Z,13.57
2022-12-19T05:08:19.159Z,14.43
2022-12-19T05:11:02.007Z,12.90
2022-12-19T05:13:44.627Z,13.77
2022-12-19T05:16:28.749Z,12.00
2022-12-19T05:19:11.660Z,14.73
2022-12-19T05:21:54.472Z,13.48
2022-12-19T05:24:37.128Z,13.68
2022-12-19T05:27:19.793Z,13.88
2022-12-19T05:30:02.406Z,13.95
2022-12-19T05:32:46.416Z,12.75
2022-12-19T05:35:29.009Z,16.17
2022-12-19T05:38:11.637Z,14.50
2022-12-19T05:40:54.209Z,13.57
2022-12-19T05:43:37.014Z,14.13
2022-12-19T05:46:20.068Z,13.60
2022-12-19T05:49:04.060Z,11.38
2022-12-19T05:51:48.267Z,12.30
2022-12-19T05:54:30.936Z,14.43
2022-12-19T05:57:13.906Z,13.13
2022-12-19T05:59:56.508Z,13.25
2022-12-19T06:02:39.221Z,13.25
2022-12-19T06:05:23.178Z,12.30
2022-12-19T06:08:06.180Z,14.75
2022-12-19T06:10:49.316Z,12.30
2022-12-19T06:13:32.107Z,13.30
2022-12-19T06:16:15.952Z,11.38
2022-12-19T06:18:58.670Z,12.75
2022-12-19T06:21:48.203Z,12.95
2022-12-19T06:24:31.233Z,13.98
2022-12-19T06:27:14.265Z,15.05
2022-12-19T06:29:56.820Z,13.00
2022-12-19T06:32:39.451Z,12.05
2022-12-19T06:35:22.088Z,14.25
2022-12-19T06:38:06.103Z,13.57
2022-12-19T06:41:06.103Z,12.48
2022-12-19T06:43:53.313Z,15.63
2022-12-19T06:46:36.464Z,13.70
2022-12-19T06:49:19.029Z,14.50
2022-12-19T06:52:06.289Z,12.60
2022-12-19T06:54:52.918Z,12.65
2022-12-19T06:57:35.535Z,10.80
2022-12-19T07:00:18.414Z,11.73
2022-12-19T07:03:01.414Z,12.85
2022-12-19T07:05:44.012Z,11.07
2022-12-19T07:08:26.612Z,11.77
2022-12-19T07:11:10.695Z,12.15
2022-12-19T07:13:53.246Z,13.50
2022-12-19T07:16:36.020Z,11.40
2022-12-19T07:19:18.983Z,12.75
2022-12-19T07:22:02.177Z,12.88
2022-12-19T07:24:44.775Z,10.50
2022-12-19T07:27:35.384Z,13.23
2022-12-19T07:30:18.388Z,14.07
2022-12-19T07:33:01.028Z,12.52
2022-12-19T07:35:43.592Z,14.27
2022-12-19T07:38:26.269Z,11.30
2022-12-19T07:41:08.891Z,12.55
2022-12-19T07:43:52.860Z,12.77
2022-12-19T07:46:35.773Z,11.98
2022-12-19T07:49:22.670Z,12.77
2022-12-19T07:52:05.673Z,12.25
2022-12-19T07:54:48.315Z,11.52
2022-12-19T07:57:30.936Z,12.18
2022-12-19T08:00:15.425Z,13.00
2022-12-19T08:02:59.483Z,12.43
2022-12-19T08:05:42.322Z,12.40
2022-12-19T08:08:24.981Z,13.90
2022-12-19T08:11:08.613Z,10.68
2022-12-19T08:13:51.333Z,11.25
2022-12-19T08:16:55.531Z,12.50
2022-12-19T08:19:39.117Z,12.65
2022-12-19T08:22:21.929Z,13.85
2022-12-19T08:25:05.716Z,11.40
2022-12-19T08:27:48.388Z,10.88
2022-12-19T08:30:31.295Z,11.77
2022-12-19T08:33:15.376Z,12.75
2022-12-19T08:35:58.028Z,11.77
2022-12-19T08:38:40.852Z,11.90
2022-12-19T08:41:23.520Z,12.75
2022-12-19T08:44:06.288Z,12.57
2022-12-19T08:46:50.426Z,15.43
2022-12-19T08:49:34.693Z,12.00
2022-12-19T08:52:18.033Z,13.38
2022-12-19T08:55:00.825Z,11.95
2022-12-19T08:57:43.484Z,10.25
2022-12-19T09:00:26.123Z,13.20
2022-12-19T09:03:10.225Z,11.65
2022-12-19T09:06:07.077Z,11.00
2022-12-19T09:08:53.598Z,12.05
2022-12-19T09:11:46.713Z,10.52
2022-12-19T09:14:33.615Z,11.20
2022-12-19T09:17:16.530Z,12.60
2022-12-19T09:19:59.214Z,12.63
2022-12-19T09:22:43.224Z,12.23
2022-12-19T09:25:25.949Z,11.13
2022-12-19T09:31:12.556Z,11.68
2022-12-19T09:33:55.353Z,10.70
2022-12-19T09:36:38.014Z,12.13
2022-12-19T09:39:22.044Z,12.45
2022-12-19T09:42:40.666Z,10.52
2022-12-19T09:45:31.534Z,12.10
2022-12-19T09:48:24.197Z,11.70
2022-12-19T09:51:11.209Z,11.07
2022-12-19T09:53:58.676Z,13.32
2022-12-19T09:56:46.333Z,12.55
2022-12-19T09:59:41.327Z,11.30
2022-12-19T10:02:33.240Z,10.30
2022-12-19T10:05:28.733Z,10.82
2022-12-19T10:08:25.510Z,11.90
2022-12-19T10:12:42.763Z,15.20
2022-12-19T10:14:23.639Z,11.07
2022-12-19T10:17:24.048Z,11.50
2022-12-19T10:20:16.171Z,10.48
2022-12-19T10:23:06.104Z,12.95
2022-12-19T10:25:52.497Z,10.00
2022-12-19T10:28:48.978Z,8.90
2022-12-19T10:31:36.750Z,11.18
2022-12-19T10:34:21.029Z,11.80
2022-12-19T10:37:24.412Z,9.50
2022-12-19T10:40:18.731Z,8.88
2022-12-19T10:43:19.123Z,7.50
2022-12-19T10:46:12.509Z,8.43
2022-12-19T10:48:56.716Z,11.90
2022-12-19T10:51:39.425Z,9.00
2022-12-19T10:54:27.599Z,9.00
2022-12-19T10:57:20.716Z,9.30
2022-12-19T11:00:05.574Z,9.32
2022-12-19T11:02:50.292Z,9.13
2022-12-19T11:05:43.020Z,8.90
2022-12-19T11:08:26.659Z,9.43
2022-12-19T11:12:32.319Z,9.13
2022-12-19T11:19:28.772Z,10.88
2022-12-19T11:27:14.285Z,9.10
2022-12-19T11:29:27.069Z,10.35
2022-12-19T11:29:31.405Z,9.15
2022-12-19T11:30:46.256Z,8.95
2022-12-19T11:32:50.914Z,9.13
2022-12-19T11:35:37.013Z,11.93
2022-12-19T11:38:23.291Z,9.10
2022-12-19T11:41:12.326Z,8.80
2022-12-19T11:43:58.828Z,9.60
2022-12-19T11:46:46.119Z,8.35
2022-12-19T11:49:31.273Z,7.65
2022-12-19T11:52:54.080Z,8.43
2022-12-19T11:55:24.331Z,6.43
2022-12-19T11:58:09.890Z,7.85
2022-12-19T12:00:55.281Z,7.05
2022-12-19T12:04:01.994Z,8.25
2022-12-19T12:06:48.745Z,7.45
2022-12-19T12:13:13.614Z,7.60
2022-12-19T12:21:02.813Z,6.85
2022-12-19T12:31:10.768Z,7.13
2022-12-19T12:31:16.333Z,6.18
2022-12-19T12:31:25.829Z,7.63
2022-12-19T12:31:40.352Z,8.52
2022-12-19T12:31:56.860Z,7.35
2022-12-19T12:35:54.022Z,7.35
2022-12-19T12:37:05.219Z,6.25
2022-12-19T12:38:24.597Z,8.07
2022-12-19T12:41:18.567Z,6.53
2022-12-19T12:44:06.041Z,8.23
2022-12-19T12:46:49.876Z,7.15
2022-12-19T12:49:39.095Z,7.88
2022-12-19T12:52:24.834Z,7.22
2022-12-19T12:55:16.504Z,8.27
2022-12-19T12:57:59.571Z,8.32
2022-12-19T13:01:02.384Z,8.35
2022-12-19T13:03:52.368Z,8.13
2022-12-19T13:06:37.268Z,8.32
2022-12-19T13:09:22.931Z,7.68
2022-12-19T13:12:32.668Z,9.50
2022-12-19T13:15:32.051Z,8.00
2022-12-19T13:18:37.627Z,7.85
2022-12-19T13:21:20.433Z,7.40
2022-12-19T13:24:22.363Z,7.85
2022-12-19T13:27:05.037Z,7.82
2022-12-19T13:29:55.565Z,8.52
2022-12-19T13:33:05.302Z,7.53
2022-12-19T13:36:33.308Z,7.35
2022-12-19T13:40:02.472Z,9.55
2022-12-19T13:42:18.157Z,8.10
2022-12-19T13:45:02.847Z,7.63
2022-12-19T13:47:46.315Z,8.40
2022-12-19T13:50:30.903Z,8.05
2022-12-19T13:53:15.973Z,9.38
2022-12-19T13:56:00.616Z,9.07
2022-12-19T13:58:48.133Z,7.55
2022-12-19T14:01:32.762Z,8.02
2022-12-19T14:04:24.289Z,9.50
2022-12-19T14:07:07.753Z,8.18
2022-12-19T14:11:33.100Z,7.85
2022-12-19T14:13:44.560Z,11.15
2022-12-19T14:16:18.546Z,9.65
2022-12-19T14:19:01.287Z,10.27
2022-12-19T14:22:10.548Z,8.20
2022-12-19T14:24:54.481Z,8.95
2022-12-19T14:28:21.385Z,9.23
2022-12-19T14:30:42.506Z,8.60
2022-12-19T14:33:46.719Z,7.85
2022-12-19T14:36:37.674Z,9.00
2022-12-19T14:39:28.955Z,8.85
2022-12-19T14:43:57.493Z,11.02
2022-12-19T14:51:51.542Z,10.02
2022-12-19T14:54:10.512Z,11.38
2022-12-19T14:54:34.715Z,8.18
2022-12-19T14:56:11.276Z,9.35
2022-12-19T14:58:52.136Z,9.05
2022-12-19T15:01:23.499Z,9.55
2022-12-19T15:04:48.664Z,10.13
2022-12-19T15:07:15.860Z,10.95
2022-12-19T15:11:04.922Z,9.65
2022-12-19T15:14:56.430Z,9.13
2022-12-19T15:16:27.775Z,11.88
2022-12-19T15:19:14.354Z,11.50
2022-12-19T15:21:57.074Z,11.25
2022-12-19T15:24:39.655Z,11.02
2022-12-19T15:27:22.881Z,11.70
2022-12-19T15:30:13.010Z,10.05
2022-12-19T15:32:55.742Z,11.32
2022-12-19T15:35:40.256Z,12.00
2022-12-19T15:38:22.857Z,11.60
2022-12-19T15:41:12.205Z,12.05
2022-12-19T15:44:05.319Z,11.43
2022-12-19T15:46:49.678Z,9.45
2022-12-19T15:49:34.968Z,9.70
2022-12-19T15:52:19.672Z,10.63
2022-12-19T15:55:02.282Z,9.82
2022-12-19T15:57:46.202Z,9.38
2022-12-19T16:00:30.024Z,9.38
2022-12-19T16:03:23.513Z,11.48
2022-12-19T16:06:11.600Z,8.93
2022-12-19T16:08:55.879Z,9.68
2022-12-19T16:11:38.605Z,9.63
2022-12-19T16:14:21.703Z,10.77
2022-12-19T16:17:04.397Z,8.63
2022-12-19T16:19:47.050Z,8.43
2022-12-19T16:22:30.555Z,9.20
2022-12-19T16:25:14.773Z,10.70
2022-12-19T16:27:59.412Z,12.52
2022-12-19T16:30:44.350Z,9.32
2022-12-19T16:33:28.953Z,9.68
2022-12-19T16:36:11.612Z,9.43
2022-12-19T16:38:54.363Z,8.98
2022-12-19T16:41:41.690Z,8.60
2022-12-19T16:44:26.825Z,10.00
2022-12-19T16:47:12.178Z,9.07
2022-12-19T16:49:54.925Z,9.07
2022-12-19T16:52:42.567Z,11.82
2022-12-19T16:55:26.558Z,8.45
2022-12-19T16:58:14.271Z,10.73
2022-12-19T17:00:57.268Z,9.52
2022-12-19T17:03:41.370Z,9.35
2022-12-19T17:06:24.937Z,10.10
2022-12-19T17:09:07.749Z,9.82
2022-12-19T17:11:52.004Z,10.98
2022-12-19T17:14:36.033Z,10.90
2022-12-19T17:17:18.705Z,10.25
2022-12-19T17:20:01.371Z,9.60
2022-12-19T17:22:44.312Z,10.65
2022-12-19T17:25:28.013Z,11.15
2022-12-19T17:28:10.863Z,8.30
2022-12-19T17:30:57.411Z,10.10
2022-12-19T17:33:41.386Z,8.73
2022-12-19T17:36:31.173Z,10.02
2022-12-19T17:39:19.486Z,10.10
2022-12-19T17:42:03.311Z,9.25
2022-12-19T17:44:45.995Z,10.32
2022-12-19T17:47:30.224Z,8.30
2022-12-19T17:50:20.367Z,9.18
2022-12-19T17:53:03.032Z,8.85
2022-12-19T17:55:46.079Z,8.05
2022-12-19T17:58:29.846Z,10.18
2022-12-19T18:01:19.598Z,9.32
2022-12-19T18:04:03.998Z,7.70
2022-12-19T18:06:47.007Z,10.43
2022-12-19T18:09:29.698Z,8.48
2022-12-19T18:12:12.463Z,8.93
2022-12-19T18:14:55.134Z,9.07
2022-12-19T18:17:38.862Z,7.43
2022-12-19T18:20:31.213Z,8.80
2022-12-19T18:23:17.093Z,7.65
2022-12-19T18:26:02.227Z,9.63
2022-12-19T18:28:45.645Z,8.82
2022-12-19T18:31:28.386Z,10.15
2022-12-19T18:34:14.349Z,8.77
2022-12-19T18:36:58.404Z,8.55
2022-12-19T18:39:41.106Z,9.15
2022-12-19T18:42:23.754Z,9.68
2022-12-19T18:45:07.004Z,8.85
2022-12-19T18:47:52.653Z,8.77
2022-12-19T18:50:36.802Z,11.13
2022-12-19T18:53:23.148Z,10.23
2022-12-19T18:56:07.566Z,10.35
2022-12-19T18:58:50.638Z,10.98
2022-12-19T19:01:33.384Z,8.50
2022-12-19T19:04:18.245Z,8.77
2022-12-19T19:07:01.254Z,8.55
2022-12-19T19:09:45.305Z,10.00
2022-12-19T19:12:54.143Z,8.82
2022-12-19T19:15:38.834Z,9.00
2022-12-19T19:18:23.747Z,7.70
2022-12-19T19:21:07.110Z,9.20
2022-12-19T19:27:07.569Z,9.00
2022-12-19T19:29:50.386Z,10.77
2022-12-19T19:32:33.575Z,9.02
2022-12-19T19:35:18.609Z,7.93
2022-12-19T19:38:02.453Z,9.15
2022-12-19T19:40:45.181Z,10.20
2022-12-19T19:46:32.444Z,10.25
2022-12-19T19:49:15.672Z,7.82
2022-12-19T19:52:02.590Z,10.50
2022-12-19T19:54:46.166Z,10.57
2022-12-19T19:57:28.942Z,9.68
2022-12-19T20:00:12.081Z,7.70
2022-12-19T20:03:02.115Z,8.80
2022-12-19T20:05:50.130Z,11.25
2022-12-19T20:08:39.186Z,10.32
2022-12-19T20:11:22.967Z,10.90
2022-12-19T20:14:05.661Z,9.13
2022-12-19T20:16:48.611Z,9.48
2022-12-19T20:19:32.701Z,8.35
2022-12-19T20:22:15.494Z,10.40
2022-12-19T20:24:58.486Z,11.52
2022-12-19T20:27:41.690Z,8.68
2022-12-19T20:30:24.932Z,10.15
2022-12-19T20:33:07.782Z,10.05
2022-12-19T20:35:51.903Z,7.72
2022-12-19T20:38:34.644Z,8.35
2022-12-19T20:41:17.641Z,9.20
2022-12-19T20:44:00.495Z,9.13
2022-12-19T20:46:43.256Z,10.30
2022-12-19T20:49:26.005Z,10.20
2022-12-19T20:52:10.069Z,9.07
2022-12-19T20:54:53.429Z,9.10
2022-12-19T20:57:36.599Z,7.55
2022-12-19T21:00:20.345Z,9.38
2022-12-19T21:06:06.609Z,6.60
2022-12-19T21:08:50.994Z,7.82
2022-12-19T21:11:35.701Z,8.48
2022-12-19T21:14:18.782Z,10.98
2022-12-19T21:17:01.546Z,8.27
2022-12-19T21:19:44.677Z,11.32
2022-12-19T21:22:27.417Z,7.82
2022-12-19T21:25:11.489Z,7.22
2022-12-19T21:27:54.413Z,9.13
2022-12-19T21:30:37.686Z,8.35
2022-12-19T21:33:20.263Z,8.00
2022-12-19T21:36:06.793Z,7.95
2022-12-19T21:38:50.647Z,7.90
2022-12-19T21:41:35.297Z,8.60
2022-12-19T21:44:18.173Z,10.52
2022-12-19T21:47:00.934Z,8.13
2022-12-19T21:49:43.787Z,8.95
2022-12-19T21:52:26.524Z,7.95
2022-12-19T21:55:10.084Z,6.88
2022-12-19T21:57:54.270Z,6.38
2022-12-19T22:00:37.083Z,7.93
2022-12-19T22:03:19.850Z,9.48
2022-12-19T22:06:02.590Z,6.68
2022-12-19T22:08:45.346Z,7.97
2022-12-19T22:11:28.758Z,6.85
2022-12-19T22:14:13.380Z,7.82
2022-12-19T22:16:56.123Z,8.80
2022-12-19T22:19:38.988Z,9.52
2022-12-19T22:22:21.673Z,9.18
2022-12-19T22:25:04.336Z,8.02
2022-12-19T22:27:47.191Z,8.02
2022-12-19T22:30:33.610Z,7.93
2022-12-19T22:33:16.342Z,9.30
2022-12-19T22:35:59.049Z,8.02
2022-12-19T22:38:41.999Z,11.00
2022-12-19T22:41:24.969Z,7.78
2022-12-19T22:44:07.967Z,8.98
2022-12-19T22:46:52.439Z,6.85
2022-12-19T22:49:35.180Z,7.05
2022-12-19T22:52:17.841Z,9.73
2022-12-19T22:55:00.488Z,9.95
2022-12-19T22:57:43.190Z,9.57
2022-12-19T23:00:25.894Z,9.07
2022-12-19T23:03:10.113Z,8.23
2022-12-19T23:05:52.943Z,9.63
2022-12-19T23:08:36.007Z,9.30
2022-12-19T23:11:19.499Z,8.05
2022-12-19T23:14:02.560Z,7.55
2022-12-19T23:16:45.677Z,8.43
2022-12-19T23:19:29.795Z,10.85
2022-12-19T23:22:12.542Z,6.97
2022-12-19T23:24:55.197Z,6.65
2022-12-19T23:27:37.909Z,7.72
2022-12-19T23:30:20.510Z,6.60
2022-12-19T23:33:03.234Z,8.13
2022-12-19T23:35:47.174Z,9.85
2022-12-19T23:38:30.081Z,6.22
2022-12-19T23:41:13.999Z,7.45
2022-12-19T23:43:56.740Z,7.65
2022-12-19T23:46:40.000Z,7.70
2022-12-19T23:49:22.647Z,8.00
2022-12-19T23:52:06.856Z,9.63
2022-12-19T23:54:49.688Z,5.82
2022-12-19T23:57:32.366Z,6.70
